createdAt,value
2016-09-07T00:00:50.314Z,99.99
2016-09-07T00:01:50.633Z,99.99
2016-09-07T00:02:50.362Z,99.99
2016-09-07T00:03:50.695Z,99.99
2016-09-07T00:04:50.394Z,99.99
2016-09-07T00:05:50.735Z,99.99
2016-09-07T00:06:50.751Z,99.99
2016-09-07T00:07:50.914Z,99.99
2016-09-07T00:08:50.474Z,99.99
2016-09-07T00:09:50.505Z,99.99
2016-09-07T00:10:50.835Z,99.99
2016-09-07T00:11:50.546Z,99.99
2016-09-07T00:12:50.612Z,99.99
2016-09-07T00:13:50.901Z,99.99
2016-09-07T00:14:50.926Z,99.99
2016-09-07T00:15:50.947Z,99.99
2016-09-07T00:16:50.963Z,99.99
2016-09-07T00:17:50.988Z,99.99
2016-09-07T00:18:51.013Z,99.99
2016-09-07T00:19:50.925Z,99.99
2016-09-07T00:20:51.056Z,99.99
2016-09-07T00:21:50.764Z,99.99
2016-09-07T00:22:51.095Z,99.99
2016-09-07T00:23:51.124Z,99.99
2016-09-07T00:24:51.136Z,99.99
2016-09-07T00:25:51.160Z,99.99
2016-09-07T00:26:51.184Z,99.99
2016-09-07T00:27:51.209Z,99.99
2016-09-07T00:28:50.916Z,99.99
2016-09-07T00:29:51.253Z,99.99
2016-09-07T00:30:51.264Z,99.99
2016-09-07T00:31:51.284Z,99.99
2016-09-07T00:32:51.000Z,99.99
2016-09-07T00:33:51.333Z,99.99
2016-09-07T00:34:51.356Z,99.99
2016-09-07T00:35:51.374Z,99.99
2016-09-07T00:36:51.390Z,99.99
2016-09-07T00:37:51.414Z,99.99
2016-09-07T00:38:51.444Z,99.99
2016-09-07T00:39:51.462Z,99.99
2016-09-07T00:40:51.165Z,99.99
2016-09-07T00:41:51.504Z,99.99
2016-09-07T00:42:51.526Z,99.99
2016-09-07T00:43:51.544Z,99.99
2016-09-07T00:44:51.255Z,99.99
2016-09-07T00:45:51.284Z,99.99
2016-09-07T00:46:51.627Z,99.99
2016-09-07T00:47:51.325Z,99.99
2016-09-07T00:48:51.655Z,99.99
2016-09-07T00:49:51.690Z,99.99
2016-09-07T00:50:51.694Z,99.99
2016-09-07T00:51:51.707Z,99.99
2016-09-07T00:52:51.744Z,99.99
2016-09-07T00:53:51.765Z,99.99
2016-09-07T00:54:51.836Z,99.99
2016-09-07T00:55:51.796Z,99.99
2016-09-07T00:56:51.826Z,99.99
2016-09-07T00:57:51.856Z,99.99
2016-09-07T00:58:51.866Z,99.99
2016-09-07T00:59:51.585Z,99.99
2016-09-07T01:00:51.905Z,99.99
2016-09-07T01:01:51.936Z,99.99
2016-09-07T01:02:51.646Z,99.99
2016-09-07T01:03:51.990Z,99.99
2016-09-07T01:04:51.687Z,99.99
2016-09-07T01:05:52.017Z,99.99
2016-09-07T01:06:52.045Z,99.99
2016-09-07T01:07:52.056Z,99.99
2016-09-07T01:08:52.085Z,99.99
2016-09-07T01:09:52.117Z,99.99
2016-09-07T01:10:51.813Z,99.99
2016-09-07T01:11:52.137Z,99.99
2016-09-07T01:12:51.873Z,99.99
2016-09-07T01:13:52.186Z,99.99
2016-09-07T01:14:52.211Z,99.99
2016-09-07T01:15:52.236Z,99.99
2016-09-07T01:16:51.946Z,99.99
2016-09-07T01:17:52.366Z,99.99
2016-09-07T01:18:52.401Z,99.99
2016-09-07T01:19:52.347Z,99.99
2016-09-07T01:20:52.337Z,99.99
2016-09-07T01:21:52.044Z,99.99
2016-09-07T01:22:52.376Z,99.99
2016-09-07T01:23:52.396Z,99.99
2016-09-07T01:24:52.115Z,99.99
2016-09-07T01:25:52.443Z,99.99
2016-09-07T01:26:52.463Z,99.99
2016-09-07T01:27:52.485Z,99.99
2016-09-07T01:28:52.206Z,99.99
2016-09-07T01:29:52.522Z,99.99
2016-09-07T01:30:52.547Z,99.99
2016-09-07T01:31:52.265Z,99.99
2016-09-07T01:32:52.285Z,99.99
2016-09-07T01:33:52.625Z,99.99
2016-09-07T01:34:52.637Z,99.99
2016-09-07T01:35:52.661Z,99.99
2016-09-07T01:36:52.367Z,99.99
2016-09-07T01:37:52.700Z,99.99
2016-09-07T01:38:52.406Z,99.99
2016-09-07T01:39:52.741Z,99.99
2016-09-07T01:40:52.759Z,99.99
2016-09-07T01:41:52.863Z,99.99
2016-09-07T01:42:52.506Z,99.99
2016-09-07T01:43:52.841Z,99.99
2016-09-07T01:44:52.535Z,99.99
2016-09-07T01:45:52.557Z,99.99
2016-09-07T01:46:52.575Z,99.99
2016-09-07T01:47:52.913Z,99.99
2016-09-07T01:48:52.937Z,99.99
2016-09-07T01:49:52.642Z,99.99
2016-09-07T01:50:52.659Z,99.99
2016-09-07T01:51:52.685Z,99.99
2016-09-07T01:52:53.016Z,99.99
2016-09-07T01:53:53.034Z,99.99
2016-09-07T01:54:53.066Z,99.99
2016-09-07T01:55:53.076Z,99.99
2016-09-07T01:56:53.114Z,99.99
2016-09-07T01:57:53.125Z,99.99
2016-09-07T01:58:53.140Z,99.99
2016-09-07T01:59:52.852Z,99.99
2016-09-07T02:00:52.878Z,99.99
2016-09-07T02:01:53.204Z,99.99
2016-09-07T02:02:52.917Z,99.99
2016-09-07T02:03:53.242Z,99.99
2016-09-07T02:04:53.278Z,99.99
2016-09-07T02:05:53.286Z,99.99
2016-09-07T02:06:53.309Z,99.99
2016-09-07T02:07:53.327Z,99.99
2016-09-07T02:08:53.355Z,99.99
2016-09-07T02:09:53.373Z,99.99
2016-09-07T02:10:53.391Z,99.99
2016-09-07T02:11:53.415Z,99.99
2016-09-07T02:12:53.436Z,99.99
2016-09-07T02:13:53.445Z,99.99
2016-09-07T02:14:53.479Z,99.99
2016-09-07T02:15:53.495Z,99.99
2016-09-07T02:16:53.521Z,99.99
2016-09-07T02:17:53.538Z,99.99
2016-09-07T02:18:53.551Z,99.99
2016-09-07T02:19:53.576Z,99.99
2016-09-07T02:20:53.601Z,99.99
2016-09-07T02:21:53.626Z,99.99
2016-09-07T02:22:53.647Z,99.99
2016-09-07T02:23:53.673Z,99.99
2016-09-07T02:24:53.687Z,99.99
2016-09-07T02:25:53.402Z,99.99
2016-09-07T02:26:53.732Z,99.99
2016-09-07T02:27:53.756Z,99.99
2016-09-07T02:28:53.764Z,99.99
2016-09-07T02:29:53.484Z,99.99
2016-09-07T02:30:53.880Z,99.99
2016-09-07T02:31:53.833Z,99.99
2016-09-07T02:32:53.858Z,99.99
2016-09-07T02:33:53.567Z,99.99
2016-09-07T02:34:53.919Z,99.99
2016-09-07T02:35:53.918Z,99.99
2016-09-07T02:36:53.948Z,99.99
2016-09-07T02:37:53.955Z,99.99
2016-09-07T02:38:53.667Z,99.99
2016-09-07T02:39:54.006Z,99.99
2016-09-07T02:40:54.023Z,99.99
2016-09-07T02:41:54.050Z,99.99
2016-09-07T02:42:53.756Z,99.99
2016-09-07T02:43:53.778Z,99.99
2016-09-07T02:44:54.107Z,99.99
2016-09-07T02:45:54.122Z,99.99
2016-09-07T02:46:54.140Z,99.99
2016-09-07T02:47:54.179Z,99.99
2016-09-07T02:48:54.184Z,99.99
2016-09-07T02:49:54.219Z,99.99
2016-09-07T02:50:54.235Z,99.99
2016-09-07T02:51:54.250Z,99.99
2016-09-07T02:52:54.314Z,99.99
2016-09-07T02:53:54.404Z,99.99
2016-09-07T02:54:54.320Z,99.99
2016-09-07T02:55:54.347Z,99.99
2016-09-07T02:56:54.046Z,99.99
2016-09-07T02:57:54.367Z,99.99
2016-09-07T02:58:54.397Z,99.99
2016-09-07T02:59:54.418Z,99.99
2016-09-07T03:00:54.125Z,99.99
2016-09-07T03:01:54.455Z,99.99
2016-09-07T03:02:54.487Z,99.99
2016-09-07T03:03:54.497Z,99.99
2016-09-07T03:04:54.230Z,99.99
2016-09-07T03:05:54.553Z,99.99
2016-09-07T03:06:54.564Z,99.99
2016-09-07T03:07:54.697Z,99.99
2016-09-07T03:08:54.660Z,99.99
2016-09-07T03:09:54.637Z,99.99
2016-09-07T03:10:54.697Z,99.99
2016-09-07T03:11:54.688Z,99.99
2016-09-07T03:12:54.744Z,99.99
2016-09-07T03:13:54.703Z,99.99
2016-09-07T03:14:54.726Z,99.99
2016-09-07T03:15:54.757Z,99.99
2016-09-07T03:16:54.452Z,99.99
2016-09-07T03:17:54.790Z,99.99
2016-09-07T03:18:54.806Z,99.99
2016-09-07T03:19:54.526Z,99.99
2016-09-07T03:20:54.856Z,99.99
2016-09-07T03:21:54.887Z,99.99
2016-09-07T03:22:54.878Z,99.99
2016-09-07T03:23:54.917Z,99.99
2016-09-07T03:24:54.932Z,99.99
2016-09-07T03:25:54.955Z,99.99
2016-09-07T03:26:54.971Z,99.99
2016-09-07T03:27:54.986Z,99.99
2016-09-07T03:28:55.017Z,99.99
2016-09-07T03:29:54.725Z,99.99
2016-09-07T03:30:55.076Z,99.99
2016-09-07T03:31:55.089Z,99.99
2016-09-07T03:32:55.190Z,99.99
2016-09-07T03:33:54.817Z,99.99
2016-09-07T03:34:55.137Z,99.99
2016-09-07T03:35:54.864Z,99.99
2016-09-07T03:36:54.867Z,99.99
2016-09-07T03:37:54.897Z,99.99
2016-09-07T03:38:55.225Z,99.99
2016-09-07T03:39:54.938Z,99.99
2016-09-07T03:40:54.947Z,99.99
2016-09-07T03:41:55.487Z,99.99
2016-09-07T03:42:55.493Z,99.99
2016-09-07T03:43:55.227Z,99.99
2016-09-07T03:44:55.187Z,99.99
2016-09-07T03:45:55.515Z,99.99
2016-09-07T03:46:55.585Z,99.99
2016-09-07T03:47:55.237Z,99.99
2016-09-07T03:48:55.587Z,99.99
2016-09-07T03:49:55.287Z,99.99
2016-09-07T03:50:55.258Z,99.99
2016-09-07T03:51:55.600Z,99.99
2016-09-07T03:52:55.555Z,99.99
2016-09-07T03:53:55.265Z,99.99
2016-09-07T03:54:55.286Z,99.99
2016-09-07T03:55:55.565Z,99.99
2016-09-07T03:56:55.278Z,99.99
2016-09-07T03:57:55.605Z,99.99
2016-09-07T03:58:55.629Z,99.99
2016-09-07T03:59:55.334Z,99.99
2016-09-07T04:00:55.675Z,99.99
2016-09-07T04:01:55.698Z,99.99
2016-09-07T04:02:55.715Z,99.99
2016-09-07T04:03:55.424Z,99.99
2016-09-07T04:04:55.760Z,99.99
2016-09-07T04:05:55.466Z,99.99
2016-09-07T04:06:55.796Z,99.99
2016-09-07T04:07:55.819Z,99.99
2016-09-07T04:08:55.833Z,99.99
2016-09-07T04:09:55.854Z,99.99
2016-09-07T04:10:55.899Z,99.99
2016-09-07T04:11:55.605Z,99.99
2016-09-07T04:12:55.976Z,99.99
2016-09-07T04:13:55.936Z,99.99
2016-09-07T04:14:55.956Z,99.99
2016-09-07T04:15:55.983Z,99.99
2016-09-07T04:16:55.681Z,99.99
2016-09-07T04:17:56.011Z,99.99
2016-09-07T04:18:56.037Z,99.99
2016-09-07T04:19:55.745Z,99.99
2016-09-07T04:20:55.781Z,99.99
2016-09-07T04:21:55.792Z,99.99
2016-09-07T04:22:56.130Z,99.99
2016-09-07T04:23:56.199Z,99.99
2016-09-07T04:24:56.163Z,99.99
2016-09-07T04:25:55.876Z,99.99
2016-09-07T04:26:56.203Z,99.99
2016-09-07T04:27:55.912Z,99.99
2016-09-07T04:28:56.242Z,99.99
2016-09-07T04:29:55.953Z,99.99
2016-09-07T04:30:56.284Z,99.99
2016-09-07T04:31:56.046Z,99.99
2016-09-07T04:32:56.326Z,99.99
2016-09-07T04:33:56.454Z,99.99
2016-09-07T04:34:56.465Z,99.99
2016-09-07T04:35:56.426Z,99.99
2016-09-07T04:36:56.430Z,99.99
2016-09-07T04:37:56.427Z,99.99
2016-09-07T04:38:56.450Z,99.99
2016-09-07T04:39:56.466Z,99.99
2016-09-07T04:40:56.283Z,99.99
2016-09-07T04:41:56.195Z,99.99
2016-09-07T04:42:56.525Z,99.99
2016-09-07T04:43:56.235Z,99.99
2016-09-07T04:44:56.560Z,99.99
2016-09-07T04:45:56.284Z,99.99
2016-09-07T04:46:56.636Z,99.99
2016-09-07T04:47:56.325Z,99.99
2016-09-07T04:48:56.646Z,99.99
2016-09-07T04:49:56.366Z,99.99
2016-09-07T04:50:56.371Z,99.99
2016-09-07T04:51:56.714Z,99.99
2016-09-07T04:52:56.735Z,99.99
2016-09-07T04:53:56.759Z,99.99
2016-09-07T04:54:56.775Z,99.99
2016-09-07T04:55:56.791Z,99.99
2016-09-07T04:56:56.800Z,99.99
2016-09-07T04:57:56.935Z,99.99
2016-09-07T04:58:56.849Z,99.99
2016-09-07T04:59:56.943Z,99.99
2016-09-07T05:00:56.585Z,99.99
2016-09-07T05:01:56.905Z,99.99
2016-09-07T05:02:56.933Z,99.99
2016-09-07T05:03:56.958Z,99.99
2016-09-07T05:04:56.963Z,99.99
2016-09-07T05:05:56.696Z,99.99
2016-09-07T05:06:56.717Z,99.99
2016-09-07T05:07:57.033Z,99.99
2016-09-07T05:08:56.747Z,99.99
2016-09-07T05:09:57.086Z,99.99
2016-09-07T05:10:57.026Z,99.99
2016-09-07T05:11:57.113Z,99.99
2016-09-07T05:12:57.291Z,99.99
2016-09-07T05:13:56.847Z,99.99
2016-09-07T05:14:57.173Z,99.99
2016-09-07T05:15:57.193Z,99.99
2016-09-07T05:16:56.898Z,99.99
2016-09-07T05:17:57.236Z,99.99
2016-09-07T05:18:57.266Z,99.99
2016-09-07T05:19:57.285Z,99.99
2016-09-07T05:20:57.300Z,99.99
2016-09-07T05:21:57.321Z,99.99
2016-09-07T05:22:57.036Z,99.99
2016-09-07T05:23:57.356Z,99.99
2016-09-07T05:24:57.070Z,99.99
2016-09-07T05:25:57.394Z,99.99
2016-09-07T05:26:57.424Z,99.99
2016-09-07T05:27:57.454Z,99.99
2016-09-07T05:28:57.145Z,99.99
2016-09-07T05:29:57.495Z,99.99
2016-09-07T05:30:57.501Z,99.99
2016-09-07T05:31:57.526Z,99.99
2016-09-07T05:32:57.240Z,99.99
2016-09-07T05:33:57.258Z,99.99
2016-09-07T05:34:57.284Z,99.99
2016-09-07T05:35:57.614Z,99.99
2016-09-07T05:36:57.634Z,99.99
2016-09-07T05:37:57.648Z,99.99
2016-09-07T05:38:57.673Z,99.99
2016-09-07T05:39:57.387Z,99.99
2016-09-07T05:40:57.394Z,99.99
2016-09-07T05:41:57.737Z,99.99
2016-09-07T05:42:58.054Z,99.99
2016-09-07T05:43:57.776Z,99.99
2016-09-07T05:44:57.494Z,99.99
2016-09-07T05:45:57.815Z,99.99
2016-09-07T05:46:57.893Z,99.99
2016-09-07T05:47:57.556Z,99.99
2016-09-07T05:48:57.907Z,99.99
2016-09-07T05:49:57.900Z,99.99
2016-09-07T05:50:57.925Z,99.99
2016-09-07T05:51:57.636Z,99.99
2016-09-07T05:52:57.663Z,99.4
2016-09-07T05:53:57.680Z,96.89
2016-09-07T05:54:58.011Z,97.24
2016-09-07T05:55:58.046Z,97.14
2016-09-07T05:56:57.742Z,96.42
2016-09-07T05:57:58.103Z,98.05
2016-09-07T05:58:58.121Z,99.29
2016-09-07T05:59:58.229Z,97.9
2016-09-07T06:00:58.157Z,98.48
2016-09-07T06:01:57.864Z,99.24
2016-09-07T06:02:57.879Z,99.82
2016-09-07T06:03:58.227Z,99.24
2016-09-07T06:04:58.225Z,99.29
2016-09-07T06:05:58.255Z,95.41
2016-09-07T06:06:58.289Z,95.6
2016-09-07T06:07:58.302Z,92.96
2016-09-07T06:08:58.321Z,90.31
2016-09-07T06:09:58.484Z,87.99
2016-09-07T06:10:58.387Z,84.43
2016-09-07T06:11:58.220Z,84.42
2016-09-07T06:12:58.119Z,82.39
2016-09-07T06:13:58.461Z,79.93
2016-09-07T06:14:58.164Z,78.09
2016-09-07T06:15:58.506Z,77.13
2016-09-07T06:16:58.532Z,77.03
2016-09-07T06:17:58.244Z,77.61
2016-09-07T06:18:58.572Z,76.26
2016-09-07T06:19:58.594Z,76.01
2016-09-07T06:20:58.626Z,75.34
2016-09-07T06:21:58.713Z,74.31
2016-09-07T06:22:58.846Z,74.99
2016-09-07T06:23:58.715Z,74.57
2016-09-07T06:24:58.734Z,75.53
2016-09-07T06:25:58.446Z,75.53
2016-09-07T06:26:58.785Z,76.07
2016-09-07T06:27:58.804Z,75.88
2016-09-07T06:28:58.522Z,75.68
2016-09-07T06:29:58.855Z,75.62
2016-09-07T06:30:58.885Z,75.34
2016-09-07T06:31:59.025Z,74.85
2016-09-07T06:32:58.625Z,74.57
2016-09-07T06:33:58.766Z,74.18
2016-09-07T06:34:58.986Z,72.58
2016-09-07T06:35:59.026Z,72.42
2016-09-07T06:36:59.040Z,71.74
2016-09-07T06:37:58.746Z,70.32
2016-09-07T06:38:58.788Z,69.1
2016-09-07T06:39:59.114Z,67.98
2016-09-07T06:40:58.840Z,66.66
2016-09-07T06:41:59.174Z,65.43
2016-09-07T06:42:59.205Z,63.82
2016-09-07T06:43:58.907Z,62.91
2016-09-07T06:44:59.263Z,60.13
2016-09-07T06:45:59.272Z,59.22
2016-09-07T06:46:59.006Z,57.6
2016-09-07T06:47:59.346Z,56.56
2016-09-07T06:48:59.359Z,55.05
2016-09-07T06:49:59.086Z,54.21
2016-09-07T06:50:59.440Z,53.04
2016-09-07T06:51:59.453Z,52.48
2016-09-07T06:52:59.474Z,52.31
2016-09-07T06:53:59.509Z,52.31
2016-09-07T06:54:59.534Z,51.24
2016-09-07T06:55:59.262Z,51.26
2016-09-07T06:56:59.503Z,51.24
2016-09-07T06:57:59.626Z,51.17
2016-09-07T06:58:59.658Z,49.73
2016-09-07T06:59:59.684Z,49.54
2016-09-07T07:00:59.716Z,48.95
2016-09-07T07:01:59.735Z,49.24
2016-09-07T07:02:59.761Z,48.19
2016-09-07T07:03:59.484Z,47.51
2016-09-07T07:04:59.833Z,48.19
2016-09-07T07:05:59.869Z,48.19
2016-09-07T07:06:59.585Z,47.71
2016-09-07T07:07:59.926Z,47.05
2016-09-07T07:08:59.941Z,47.44
2016-09-07T07:09:59.665Z,47.51
2016-09-07T07:10:59.693Z,46.26
2016-09-07T07:12:00.045Z,46.07
2016-09-07T07:13:00.070Z,46.97
2016-09-07T07:14:00.084Z,46.66
2016-09-07T07:15:00.124Z,47.24
2016-09-07T07:15:59.840Z,47.22
2016-09-07T07:17:00.186Z,47.12
2016-09-07T07:18:00.215Z,46.36
2016-09-07T07:18:59.931Z,45.8
2016-09-07T07:19:59.960Z,45.12
2016-09-07T07:21:00.314Z,44.94
2016-09-07T07:22:00.333Z,45.23
2016-09-07T07:23:00.427Z,44.26
2016-09-07T07:24:00.405Z,44.57
2016-09-07T07:25:00.216Z,43.59
2016-09-07T07:26:00.137Z,44.57
2016-09-07T07:27:00.180Z,46.21
2016-09-07T07:28:00.512Z,45.9
2016-09-07T07:29:00.233Z,46
2016-09-07T07:30:00.587Z,47.22
2016-09-07T07:31:00.604Z,47.78
2016-09-07T07:32:00.364Z,48.05
2016-09-07T07:33:00.664Z,49.78
2016-09-07T07:34:00.705Z,50.73
2016-09-07T07:35:00.772Z,50.99
2016-09-07T07:36:00.801Z,51.39
2016-09-07T07:37:00.476Z,49.85
2016-09-07T07:38:00.512Z,48.71
2016-09-07T07:39:00.853Z,48.14
2016-09-07T07:40:00.874Z,47.29
2016-09-07T07:41:00.914Z,46.83
2016-09-07T07:42:00.618Z,48.07
2016-09-07T07:43:00.648Z,48.36
2016-09-07T07:44:00.693Z,50.85
2016-09-07T07:45:00.719Z,53.5
2016-09-07T07:46:01.052Z,56.16
2016-09-07T07:47:01.123Z,58.61
2016-09-07T07:48:00.806Z,60.68
2016-09-07T07:49:01.159Z,63.82
2016-09-07T07:50:01.176Z,66.56
2016-09-07T07:51:01.192Z,67.75
2016-09-07T07:52:01.224Z,69.3
2016-09-07T07:53:01.257Z,70.04
2016-09-07T07:54:00.980Z,71.36
2016-09-07T07:55:01.319Z,71.7
2016-09-07T07:56:01.347Z,73.63
2016-09-07T07:57:01.387Z,74.27
2016-09-07T07:58:01.414Z,75.05
2016-09-07T07:59:01.427Z,74.95
2016-09-07T08:00:01.447Z,75.68
2016-09-07T08:01:01.483Z,76.17
2016-09-07T08:02:01.516Z,76.07
2016-09-07T08:03:01.534Z,76.65
2016-09-07T08:04:01.560Z,76.26
2016-09-07T08:05:01.603Z,77.33
2016-09-07T08:06:01.307Z,77.13
2016-09-07T08:07:01.647Z,77.13
2016-09-07T08:08:01.362Z,78.09
2016-09-07T08:09:01.386Z,77.96
2016-09-07T08:10:01.417Z,77.86
2016-09-07T08:11:01.747Z,77.76
2016-09-07T08:12:01.788Z,77.96
2016-09-07T08:13:01.855Z,78.06
2016-09-07T08:14:01.824Z,78.86
2016-09-07T08:15:01.879Z,76.71
2016-09-07T08:16:01.886Z,77.76
2016-09-07T08:17:01.920Z,78.77
2016-09-07T08:18:01.944Z,79.02
2016-09-07T08:19:01.969Z,77.23
2016-09-07T08:20:01.994Z,76.93
2016-09-07T08:21:02.024Z,78.38
2016-09-07T08:22:02.046Z,78.38
2016-09-07T08:23:02.086Z,77.81
2016-09-07T08:24:02.305Z,77.13
2016-09-07T08:25:02.126Z,78
2016-09-07T08:26:02.297Z,76.93
2016-09-07T08:27:02.176Z,77.51
2016-09-07T08:28:02.313Z,78.09
2016-09-07T08:29:02.236Z,77.61
2016-09-07T08:30:02.260Z,77.81
2016-09-07T08:31:02.298Z,77.9
2016-09-07T08:32:01.994Z,77.9
2016-09-07T08:33:02.033Z,78.96
2016-09-07T08:34:02.157Z,77.03
2016-09-07T08:35:02.441Z,76.55
2016-09-07T08:36:02.437Z,77.23
2016-09-07T08:37:02.504Z,77.03
2016-09-07T08:38:02.484Z,78.09
2016-09-07T08:39:02.493Z,78.09
2016-09-07T08:40:02.513Z,77.33
2016-09-07T08:41:02.543Z,77.51
2016-09-07T08:42:02.575Z,78.09
2016-09-07T08:43:02.606Z,78
2016-09-07T08:44:02.312Z,78.38
2016-09-07T08:45:02.666Z,78.67
2016-09-07T08:46:02.376Z,78.13
2016-09-07T08:47:02.488Z,77.07
2016-09-07T08:48:02.834Z,77.94
2016-09-07T08:49:02.854Z,78.03
2016-09-07T08:50:02.875Z,77.07
2016-09-07T08:51:02.803Z,77.07
2016-09-07T08:52:02.520Z,76.59
2016-09-07T08:53:02.867Z,76.68
2016-09-07T08:54:02.882Z,76.1
2016-09-07T08:55:02.914Z,77.94
2016-09-07T08:56:02.944Z,77.26
2016-09-07T08:57:02.967Z,77.94
2016-09-07T08:58:03.019Z,77.26
2016-09-07T08:59:03.022Z,76.24
2016-09-07T09:00:03.057Z,77.21
2016-09-07T09:01:02.765Z,76.43
2016-09-07T09:02:03.101Z,76.15
2016-09-07T09:03:03.122Z,76.34
2016-09-07T09:04:02.835Z,76.43
2016-09-07T09:05:03.176Z,76.05
2016-09-07T09:06:03.217Z,76.05
2016-09-07T09:07:02.983Z,77.01
2016-09-07T09:08:02.941Z,75.47
2016-09-07T09:09:03.285Z,76.15
2016-09-07T09:10:03.310Z,75.37
2016-09-07T09:11:03.337Z,74.99
2016-09-07T09:12:03.374Z,75.85
2016-09-07T09:13:03.393Z,76.34
2016-09-07T09:14:03.427Z,76.92
2016-09-07T09:15:03.444Z,76.57
2016-09-07T09:16:03.467Z,76.09
2016-09-07T09:17:03.494Z,76.37
2016-09-07T09:18:03.524Z,75.6
2016-09-07T09:19:03.537Z,74.54
2016-09-07T09:20:03.569Z,74.44
2016-09-07T09:21:03.593Z,74.06
2016-09-07T09:22:03.624Z,73.48
2016-09-07T09:23:03.651Z,73.19
2016-09-07T09:24:03.676Z,74.16
2016-09-07T09:25:03.711Z,73.19
2016-09-07T09:26:03.726Z,73.58
2016-09-07T09:27:03.443Z,73.28
2016-09-07T09:28:03.486Z,74.25
2016-09-07T09:29:03.820Z,73.38
2016-09-07T09:30:03.835Z,74.44
2016-09-07T09:31:03.862Z,73.67
2016-09-07T09:32:03.883Z,74.64
2016-09-07T09:33:03.914Z,74.54
2016-09-07T09:34:03.944Z,74.35
2016-09-07T09:35:03.972Z,73.67
2016-09-07T09:36:03.994Z,73.8
2016-09-07T09:37:04.022Z,73.52
2016-09-07T09:38:04.054Z,74.77
2016-09-07T09:39:04.080Z,74.19
2016-09-07T09:40:04.107Z,74.87
2016-09-07T09:41:04.123Z,72.55
2016-09-07T09:42:04.161Z,72.64
2016-09-07T09:43:04.186Z,71.97
2016-09-07T09:44:03.883Z,72.74
2016-09-07T09:45:04.236Z,72.55
2016-09-07T09:46:03.942Z,72.74
2016-09-07T09:47:04.283Z,73.03
2016-09-07T09:48:04.313Z,72.45
2016-09-07T09:49:04.032Z,71.3
2016-09-07T09:50:04.368Z,71.2
2016-09-07T09:51:04.393Z,72.26
2016-09-07T09:52:04.424Z,72
2016-09-07T09:53:04.443Z,70.75
2016-09-07T09:54:04.163Z,69.98
2016-09-07T09:55:04.492Z,70.75
2016-09-07T09:56:04.542Z,71.04
2016-09-07T09:57:04.238Z,69.88
2016-09-07T09:58:04.580Z,69.01
2016-09-07T09:59:04.624Z,68.04
2016-09-07T10:00:04.662Z,69.49
2016-09-07T10:01:04.673Z,68.52
2016-09-07T10:02:04.710Z,68.91
2016-09-07T10:03:04.813Z,67.36
2016-09-07T10:04:04.761Z,66.5
2016-09-07T10:05:04.779Z,67.08
2016-09-07T10:06:04.796Z,67.27
2016-09-07T10:07:04.832Z,67.36
2016-09-07T10:08:04.853Z,68.91
2016-09-07T10:09:04.888Z,67.85
2016-09-07T10:10:04.595Z,66.24
2016-09-07T10:11:04.755Z,63.6
2016-09-07T10:12:04.641Z,65.92
2016-09-07T10:13:05.378Z,66.98
2016-09-07T10:14:04.702Z,66.3
2016-09-07T10:15:04.728Z,66.59
2016-09-07T10:16:05.075Z,66.43
2016-09-07T10:17:05.092Z,66.91
2016-09-07T10:18:05.123Z,67.21
2016-09-07T10:19:04.826Z,67.11
2016-09-07T10:20:05.373Z,66.05
2016-09-07T10:21:05.413Z,65.37
2016-09-07T10:22:04.968Z,65.47
2016-09-07T10:23:05.398Z,66.53
2016-09-07T10:24:05.127Z,66.14
2016-09-07T10:25:05.007Z,66.05
2016-09-07T10:26:05.438Z,66.17
2016-09-07T10:27:05.414Z,66.37
2016-09-07T10:28:05.453Z,66.27
2016-09-07T10:29:05.100Z,65.88
2016-09-07T10:30:05.147Z,65.59
2016-09-07T10:31:05.524Z,63.56
2016-09-07T10:32:05.502Z,62.98
2016-09-07T10:33:05.529Z,63.14
2016-09-07T10:34:05.493Z,63.82
2016-09-07T10:35:05.468Z,62.95
2016-09-07T10:36:05.603Z,62.18
2016-09-07T10:37:05.482Z,64.11
2016-09-07T10:38:05.493Z,63.85
2016-09-07T10:39:05.494Z,63.66
2016-09-07T10:40:05.710Z,63.66
2016-09-07T10:41:05.753Z,63.27
2016-09-07T10:42:05.773Z,64.53
2016-09-07T10:43:05.805Z,64.04
2016-09-07T10:44:05.519Z,63.95
2016-09-07T10:45:05.863Z,63.85
2016-09-07T10:46:05.883Z,63.85
2016-09-07T10:47:05.591Z,65.59
2016-09-07T10:48:05.624Z,63.46
2016-09-07T10:49:05.974Z,64.82
2016-09-07T10:50:05.988Z,64.04
2016-09-07T10:51:06.023Z,64.92
2016-09-07T10:52:06.044Z,64.04
2016-09-07T10:53:06.075Z,60.47
2016-09-07T10:54:06.105Z,60.57
2016-09-07T10:55:06.131Z,60.27
2016-09-07T10:56:06.204Z,60.27
2016-09-07T10:57:06.180Z,60.47
2016-09-07T10:58:06.209Z,60.37
2016-09-07T10:59:05.923Z,61.4
2016-09-07T11:00:06.373Z,62.27
2016-09-07T11:01:05.989Z,61.02
2016-09-07T11:02:06.323Z,60.34
2016-09-07T11:03:06.351Z,60.14
2016-09-07T11:04:06.383Z,59.66
2016-09-07T11:05:06.393Z,60.72
2016-09-07T11:06:06.435Z,59.66
2016-09-07T11:07:06.462Z,59.56
2016-09-07T11:08:06.483Z,59.18
2016-09-07T11:09:06.203Z,61.02
2016-09-07T11:10:06.541Z,57.92
2016-09-07T11:11:06.593Z,57.95
2016-09-07T11:12:06.282Z,59.5
2016-09-07T11:13:06.323Z,58.44
2016-09-07T11:14:06.650Z,58.82
2016-09-07T11:15:06.394Z,58.92
2016-09-07T11:16:06.716Z,58.04
2016-09-07T11:17:06.732Z,57.56
2016-09-07T11:18:06.782Z,58.24
2016-09-07T11:19:06.784Z,57.37
2016-09-07T11:20:06.814Z,57.28
2016-09-07T11:21:06.844Z,57.37
2016-09-07T11:22:06.871Z,55.92
2016-09-07T11:23:06.892Z,57.37
2016-09-07T11:24:06.927Z,58.92
2016-09-07T11:25:06.641Z,58.82
2016-09-07T11:26:07.084Z,59.5
2016-09-07T11:27:06.700Z,59.59
2016-09-07T11:28:07.040Z,59.59
2016-09-07T11:29:06.764Z,55.53
2016-09-07T11:30:07.095Z,54.66
2016-09-07T11:31:07.113Z,54.95
2016-09-07T11:32:06.836Z,53.5
2016-09-07T11:33:07.184Z,54.08
2016-09-07T11:34:07.206Z,54.66
2016-09-07T11:35:07.324Z,55.66
2016-09-07T11:36:07.246Z,54.79
2016-09-07T11:37:07.364Z,55.53
2016-09-07T11:38:07.328Z,55.05
2016-09-07T11:39:07.336Z,55.07
2016-09-07T11:40:07.366Z,55.66
2016-09-07T11:41:07.396Z,55.53
2016-09-07T11:42:07.416Z,57.18
2016-09-07T11:43:07.446Z,57.59
2016-09-07T11:44:07.461Z,57.3
2016-09-07T11:45:07.506Z,55.76
2016-09-07T11:46:07.562Z,56.34
2016-09-07T11:47:07.555Z,56.34
2016-09-07T11:48:07.588Z,56.34
2016-09-07T11:49:07.603Z,56.72
2016-09-07T11:50:07.325Z,57.23
2016-09-07T11:51:07.683Z,57.62
2016-09-07T11:52:07.702Z,57.62
2016-09-07T11:53:07.716Z,56.16
2016-09-07T11:54:07.748Z,55.2
2016-09-07T11:55:07.783Z,55
2016-09-07T11:56:07.803Z,55.78
2016-09-07T11:57:07.843Z,54.91
2016-09-07T11:58:07.854Z,56.46
2016-09-07T11:59:07.895Z,55.2
2016-09-07T12:00:07.607Z,56.26
2016-09-07T12:01:07.947Z,56.75
2016-09-07T12:02:07.979Z,55.76
2016-09-07T12:03:07.684Z,53.75
2016-09-07T12:04:08.050Z,54.62
2016-09-07T12:05:08.064Z,56.24
2016-09-07T12:06:08.074Z,55.85
2016-09-07T12:07:08.115Z,56.43
2016-09-07T12:08:08.137Z,57.59
2016-09-07T12:09:08.219Z,55.27
2016-09-07T12:10:08.190Z,57.62
2016-09-07T12:11:08.240Z,56.46
2016-09-07T12:12:07.942Z,55.49
2016-09-07T12:13:08.574Z,54.81
2016-09-07T12:14:08.510Z,55.56
2016-09-07T12:15:08.788Z,55.36
2016-09-07T12:16:08.618Z,55.2
2016-09-07T12:17:08.707Z,55.3
2016-09-07T12:18:08.565Z,55.3
2016-09-07T12:19:08.636Z,54.71
2016-09-07T12:20:08.687Z,54.52
2016-09-07T12:21:08.647Z,54.52
2016-09-07T12:22:08.580Z,52.87
2016-09-07T12:23:08.608Z,53.85
2016-09-07T12:24:08.274Z,56.65
2016-09-07T12:25:08.607Z,55.58
2016-09-07T12:26:08.637Z,54.81
2016-09-07T12:27:08.666Z,51.81
2016-09-07T12:28:08.720Z,52.2
2016-09-07T12:29:08.417Z,52.1
2016-09-07T12:30:08.749Z,51.42
2016-09-07T12:31:08.983Z,50.16
2016-09-07T12:32:08.805Z,51.81
2016-09-07T12:33:08.840Z,51.62
2016-09-07T12:34:08.554Z,51.62
2016-09-07T12:35:08.903Z,51.32
2016-09-07T12:36:08.918Z,50.65
2016-09-07T12:37:09.026Z,51.42
2016-09-07T12:38:08.977Z,52.29
2016-09-07T12:39:09.120Z,52.97
2016-09-07T12:40:09.038Z,51.9
2016-09-07T12:41:09.067Z,51.9
2016-09-07T12:42:09.109Z,52
2016-09-07T12:43:09.118Z,51.13
2016-09-07T12:44:08.827Z,48.42
2016-09-07T12:45:09.178Z,49.49
2016-09-07T12:46:09.020Z,49.97
2016-09-07T12:47:09.224Z,49.68
2016-09-07T12:48:09.384Z,50.35
2016-09-07T12:49:09.277Z,50.65
2016-09-07T12:50:09.315Z,49.87
2016-09-07T12:51:09.334Z,49.39
2016-09-07T12:52:09.367Z,51.13
2016-09-07T12:53:09.405Z,51.23
2016-09-07T12:54:09.423Z,49.1
2016-09-07T12:55:09.447Z,49.68